Terminal Aerodrome Forecast
Issued by NWS

Home | Current Version | Previous Version | Graphics & Text | Print | Product List | Glossary On
Versions: 1 2 3 4 5 6 7 8 9 10 11 12 13 14 15 16 17 18
000
FTUS43 KMPX 241700
TAFAXN
TAF
KAXN 241729Z 2418/2518 30007KT 5SM BR OVC002
      TEMPO 2418/2421 2SM BR
     FM242100 27006KT P6SM SCT004 OVC008
     FM250500 20007KT P6SM SCT015 OVC070
     FM250900 22005KT P6SM OVC015
     FM251200 27006KT 3SM -SN BR OVC005=

USA.gov is the U.S. government's official web portal to all federal, state and local government web resources and services.